sensor_id;sensor_type;location;lat;lon;timestamp;P1;durP1;ratioP1;P2;durP2;ratioP2
46391;SDS011;32098;49.448;7.904;2022-12-07T00:01:28;12.37;;;7.57;;
46391;SDS011;32098;49.448;7.904;2022-12-07T00:03:58;9.97;;;6.80;;
46391;SDS011;32098;49.448;7.904;2022-12-07T00:06:33;10.40;;;6.67;;
46391;SDS011;32098;49.448;7.904;2022-12-07T00:09:01;12.03;;;7.47;;
46391;SDS011;32098;49.448;7.904;2022-12-07T00:11:28;9.80;;;6.40;;
46391;SDS011;32098;49.448;7.904;2022-12-07T00:13:55;10.50;;;6.80;;
46391;SDS011;32098;49.448;7.904;2022-12-07T00:16:24;14.03;;;9.27;;
46391;SDS011;32098;49.448;7.904;2022-12-07T00:18:52;15.50;;;9.37;;
46391;SDS011;32098;49.448;7.904;2022-12-07T00:21:20;13.70;;;8.53;;
46391;SDS011;32098;49.448;7.904;2022-12-07T00:23:49;13.87;;;7.90;;
46391;SDS011;32098;49.448;7.904;2022-12-07T00:26:18;11.90;;;7.83;;
46391;SDS011;32098;49.448;7.904;2022-12-07T00:28:50;11.40;;;7.03;;
46391;SDS011;32098;49.448;7.904;2022-12-07T00:31:19;12.20;;;7.03;;
46391;SDS011;32098;49.448;7.904;2022-12-07T00:33:47;15.13;;;7.70;;
46391;SDS011;32098;49.448;7.904;2022-12-07T00:36:15;11.63;;;7.67;;
46391;SDS011;32098;49.448;7.904;2022-12-07T00:38:51;11.23;;;6.97;;
46391;SDS011;32098;49.448;7.904;2022-12-07T00:41:19;11.77;;;6.33;;
46391;SDS011;32098;49.448;7.904;2022-12-07T00:43:47;8.93;;;6.13;;
46391;SDS011;32098;49.448;7.904;2022-12-07T00:46:15;9.73;;;6.67;;
46391;SDS011;32098;49.448;7.904;2022-12-07T00:48:43;10.10;;;7.00;;
46391;SDS011;32098;49.448;7.904;2022-12-07T00:51:10;10.13;;;6.17;;
46391;SDS011;32098;49.448;7.904;2022-12-07T00:53:38;11.70;;;7.17;;
46391;SDS011;32098;49.448;7.904;2022-12-07T00:56:08;12.90;;;6.60;;
46391;SDS011;32098;49.448;7.904;2022-12-07T00:58:37;9.80;;;6.83;;
46391;SDS011;32098;49.448;7.904;2022-12-07T01:01:04;11.07;;;6.20;;
46391;SDS011;32098;49.448;7.904;2022-12-07T01:03:32;10.23;;;6.30;;
46391;SDS011;32098;49.448;7.904;2022-12-07T01:05:59;8.47;;;5.60;;
46391;SDS011;32098;49.448;7.904;2022-12-07T01:08:26;8.70;;;5.83;;
46391;SDS011;32098;49.448;7.904;2022-12-07T01:11:00;8.50;;;5.43;;
46391;SDS011;32098;49.448;7.904;2022-12-07T01:13:32;8.67;;;5.53;;
46391;SDS011;32098;49.448;7.904;2022-12-07T01:16:00;10.63;;;6.60;;
46391;SDS011;32098;49.448;7.904;2022-12-07T01:18:30;12.70;;;7.73;;
46391;SDS011;32098;49.448;7.904;2022-12-07T01:21:17;12.13;;;8.67;;
46391;SDS011;32098;49.448;7.904;2022-12-07T01:23:48;12.03;;;7.97;;
46391;SDS011;32098;49.448;7.904;2022-12-07T01:26:17;14.60;;;8.83;;
46391;SDS011;32098;49.448;7.904;2022-12-07T01:28:46;14.23;;;8.73;;
46391;SDS011;32098;49.448;7.904;2022-12-07T01:31:13;13.03;;;8.43;;
46391;SDS011;32098;49.448;7.904;2022-12-07T01:33:43;12.30;;;7.53;;
46391;SDS011;32098;49.448;7.904;2022-12-07T01:36:15;10.37;;;7.00;;
46391;SDS011;32098;49.448;7.904;2022-12-07T01:38:49;12.30;;;6.73;;
46391;SDS011;32098;49.448;7.904;2022-12-07T01:41:19;7.50;;;5.70;;
46391;SDS011;32098;49.448;7.904;2022-12-07T01:46:37;8.87;;;5.87;;
46391;SDS011;32098;49.448;7.904;2022-12-07T01:49:04;8.40;;;5.80;;
46391;SDS011;32098;49.448;7.904;2022-12-07T01:51:34;8.30;;;5.57;;
46391;SDS011;32098;49.448;7.904;2022-12-07T01:54:03;8.27;;;5.07;;
46391;SDS011;32098;49.448;7.904;2022-12-07T01:56:30;10.57;;;6.80;;
46391;SDS011;32098;49.448;7.904;2022-12-07T01:58:58;10.53;;;6.50;;
46391;SDS011;32098;49.448;7.904;2022-12-07T02:01:28;9.30;;;6.73;;
46391;SDS011;32098;49.448;7.904;2022-12-07T02:03:55;11.10;;;6.57;;
46391;SDS011;32098;49.448;7.904;2022-12-07T02:06:23;11.53;;;7.07;;
46391;SDS011;32098;49.448;7.904;2022-12-07T02:08:51;10.53;;;6.50;;
46391;SDS011;32098;49.448;7.904;2022-12-07T02:11:18;10.13;;;6.10;;
46391;SDS011;32098;49.448;7.904;2022-12-07T02:13:46;8.17;;;5.43;;
46391;SDS011;32098;49.448;7.904;2022-12-07T02:16:29;9.10;;;5.80;;
46391;SDS011;32098;49.448;7.904;2022-12-07T02:30:48;7.80;;;5.67;;
46391;SDS011;32098;49.448;7.904;2022-12-07T02:33:26;7.93;;;5.10;;
46391;SDS011;32098;49.448;7.904;2022-12-07T02:36:16;8.63;;;5.43;;
46391;SDS011;32098;49.448;7.904;2022-12-07T02:41:48;7.47;;;5.47;;
46391;SDS011;32098;49.448;7.904;2022-12-07T02:44:21;8.33;;;5.53;;
46391;SDS011;32098;49.448;7.904;2022-12-07T02:46:55;10.03;;;5.30;;
46391;SDS011;32098;49.448;7.904;2022-12-07T02:49:27;7.40;;;5.07;;
46391;SDS011;32098;49.448;7.904;2022-12-07T02:51:55;7.73;;;5.20;;
46391;SDS011;32098;49.448;7.904;2022-12-07T02:54:21;8.37;;;5.50;;
46391;SDS011;32098;49.448;7.904;2022-12-07T02:56:50;9.07;;;5.73;;
46391;SDS011;32098;49.448;7.904;2022-12-07T03:02:28;8.57;;;5.87;;
46391;SDS011;32098;49.448;7.904;2022-12-07T03:05:04;7.47;;;5.50;;
46391;SDS011;32098;49.448;7.904;2022-12-07T03:07:49;9.93;;;5.67;;
46391;SDS011;32098;49.448;7.904;2022-12-07T03:10:28;9.13;;;5.67;;
46391;SDS011;32098;49.448;7.904;2022-12-07T03:16:00;8.60;;;5.60;;
46391;SDS011;32098;49.448;7.904;2022-12-07T03:18:35;10.63;;;5.30;;
46391;SDS011;32098;49.448;7.904;2022-12-07T03:21:11;7.87;;;5.67;;
46391;SDS011;32098;49.448;7.904;2022-12-07T03:23:42;9.93;;;6.30;;
46391;SDS011;32098;49.448;7.904;2022-12-07T03:26:13;11.40;;;6.03;;
46391;SDS011;32098;49.448;7.904;2022-12-07T03:28:44;8.20;;;5.50;;
46391;SDS011;32098;49.448;7.904;2022-12-07T03:31:17;8.43;;;6.07;;
46391;SDS011;32098;49.448;7.904;2022-12-07T03:36:55;8.57;;;5.67;;
46391;SDS011;32098;49.448;7.904;2022-12-07T03:39:33;7.70;;;5.40;;
46391;SDS011;32098;49.448;7.904;2022-12-07T03:42:00;9.10;;;6.20;;
46391;SDS011;32098;49.448;7.904;2022-12-07T03:44:30;8.63;;;5.57;;
46391;SDS011;32098;49.448;7.904;2022-12-07T03:49:33;9.97;;;5.57;;
46391;SDS011;32098;49.448;7.904;2022-12-07T03:54:59;8.60;;;5.67;;
46391;SDS011;32098;49.448;7.904;2022-12-07T03:57:31;7.63;;;5.37;;
46391;SDS011;32098;49.448;7.904;2022-12-07T03:59:59;10.50;;;5.63;;
46391;SDS011;32098;49.448;7.904;2022-12-07T04:02:37;9.93;;;6.13;;
46391;SDS011;32098;49.448;7.904;2022-12-07T04:05:04;11.47;;;6.33;;
46391;SDS011;32098;49.448;7.904;2022-12-07T04:07:31;12.17;;;6.77;;
46391;SDS011;32098;49.448;7.904;2022-12-07T04:09:57;9.37;;;5.73;;
46391;SDS011;32098;49.448;7.904;2022-12-07T04:12:24;10.33;;;6.23;;
46391;SDS011;32098;49.448;7.904;2022-12-07T04:14:50;9.20;;;5.77;;
46391;SDS011;32098;49.448;7.904;2022-12-07T04:17:17;11.27;;;6.80;;
46391;SDS011;32098;49.448;7.904;2022-12-07T04:19:43;9.43;;;6.17;;
46391;SDS011;32098;49.448;7.904;2022-12-07T04:22:10;11.60;;;6.60;;
46391;SDS011;32098;49.448;7.904;2022-12-07T04:24:36;9.77;;;6.30;;
46391;SDS011;32098;49.448;7.904;2022-12-07T04:27:03;12.20;;;7.20;;
46391;SDS011;32098;49.448;7.904;2022-12-07T04:29:29;8.67;;;6.03;;
46391;SDS011;32098;49.448;7.904;2022-12-07T04:31:56;8.53;;;5.73;;
46391;SDS011;32098;49.448;7.904;2022-12-07T04:34:22;8.60;;;5.97;;
46391;SDS011;32098;49.448;7.904;2022-12-07T04:36:49;10.43;;;6.23;;
46391;SDS011;32098;49.448;7.904;2022-12-07T04:39:20;10.93;;;6.83;;
46391;SDS011;32098;49.448;7.904;2022-12-07T04:41:54;10.57;;;7.07;;
46391;SDS011;32098;49.448;7.904;2022-12-07T04:44:21;10.13;;;6.57;;
46391;SDS011;32098;49.448;7.904;2022-12-07T04:46:49;16.80;;;14.60;;
46391;SDS011;32098;49.448;7.904;2022-12-07T04:49:16;12.80;;;9.57;;
46391;SDS011;32098;49.448;7.904;2022-12-07T04:51:43;12.50;;;7.77;;
46391;SDS011;32098;49.448;7.904;2022-12-07T04:54:11;11.17;;;7.23;;
46391;SDS011;32098;49.448;7.904;2022-12-07T04:56:38;10.60;;;6.60;;
46391;SDS011;32098;49.448;7.904;2022-12-07T04:59:05;11.80;;;7.10;;
46391;SDS011;32098;49.448;7.904;2022-12-07T05:01:32;9.37;;;6.57;;
46391;SDS011;32098;49.448;7.904;2022-12-07T05:03:59;11.30;;;7.20;;
46391;SDS011;32098;49.448;7.904;2022-12-07T05:06:26;12.07;;;7.50;;
46391;SDS011;32098;49.448;7.904;2022-12-07T05:08:53;12.03;;;7.77;;
46391;SDS011;32098;49.448;7.904;2022-12-07T05:11:19;9.70;;;6.60;;
46391;SDS011;32098;49.448;7.904;2022-12-07T05:14:16;11.47;;;7.50;;
46391;SDS011;32098;49.448;7.904;2022-12-07T05:16:47;10.93;;;6.97;;
46391;SDS011;32098;49.448;7.904;2022-12-07T05:19:15;14.23;;;7.97;;
46391;SDS011;32098;49.448;7.904;2022-12-07T05:21:43;11.67;;;7.30;;
46391;SDS011;32098;49.448;7.904;2022-12-07T05:24:10;14.57;;;7.70;;
46391;SDS011;32098;49.448;7.904;2022-12-07T05:26:38;12.50;;;7.70;;
46391;SDS011;32098;49.448;7.904;2022-12-07T05:29:05;12.70;;;7.87;;
46391;SDS011;32098;49.448;7.904;2022-12-07T05:31:32;13.93;;;8.13;;
46391;SDS011;32098;49.448;7.904;2022-12-07T05:33:58;11.87;;;7.93;;
46391;SDS011;32098;49.448;7.904;2022-12-07T05:36:25;13.50;;;8.30;;
46391;SDS011;32098;49.448;7.904;2022-12-07T05:38:54;13.13;;;7.63;;
46391;SDS011;32098;49.448;7.904;2022-12-07T05:41:21;13.03;;;7.77;;
46391;SDS011;32098;49.448;7.904;2022-12-07T05:44:06;15.83;;;8.17;;
46391;SDS011;32098;49.448;7.904;2022-12-07T05:46:32;13.10;;;8.47;;
46391;SDS011;32098;49.448;7.904;2022-12-07T05:49:00;12.93;;;8.27;;
46391;SDS011;32098;49.448;7.904;2022-12-07T05:51:27;12.33;;;7.90;;
46391;SDS011;32098;49.448;7.904;2022-12-07T05:53:53;14.30;;;8.17;;
46391;SDS011;32098;49.448;7.904;2022-12-07T05:56:20;12.77;;;8.10;;
46391;SDS011;32098;49.448;7.904;2022-12-07T05:58:46;13.13;;;7.93;;
46391;SDS011;32098;49.448;7.904;2022-12-07T06:01:31;13.37;;;7.90;;
46391;SDS011;32098;49.448;7.904;2022-12-07T06:03:58;14.57;;;8.10;;
46391;SDS011;32098;49.448;7.904;2022-12-07T06:06:24;12.97;;;7.93;;
46391;SDS011;32098;49.448;7.904;2022-12-07T06:08:51;12.57;;;8.47;;
46391;SDS011;32098;49.448;7.904;2022-12-07T06:11:17;14.70;;;8.63;;
46391;SDS011;32098;49.448;7.904;2022-12-07T06:14:03;16.10;;;9.37;;
46391;SDS011;32098;49.448;7.904;2022-12-07T06:16:29;16.13;;;9.40;;
46391;SDS011;32098;49.448;7.904;2022-12-07T06:18:56;13.37;;;8.37;;
46391;SDS011;32098;49.448;7.904;2022-12-07T06:21:22;13.17;;;8.53;;
46391;SDS011;32098;49.448;7.904;2022-12-07T06:23:49;13.90;;;8.67;;
46391;SDS011;32098;49.448;7.904;2022-12-07T06:26:15;14.30;;;8.13;;
46391;SDS011;32098;49.448;7.904;2022-12-07T06:28:42;14.70;;;9.07;;
46391;SDS011;32098;49.448;7.904;2022-12-07T06:31:08;15.90;;;8.73;;
46391;SDS011;32098;49.448;7.904;2022-12-07T06:33:39;15.60;;;8.90;;
46391;SDS011;32098;49.448;7.904;2022-12-07T06:36:06;15.27;;;8.63;;
46391;SDS011;32098;49.448;7.904;2022-12-07T06:38:33;15.10;;;8.77;;
46391;SDS011;32098;49.448;7.904;2022-12-07T06:40:59;17.50;;;8.60;;
46391;SDS011;32098;49.448;7.904;2022-12-07T06:43:25;14.53;;;9.63;;
46391;SDS011;32098;49.448;7.904;2022-12-07T06:45:53;13.20;;;9.03;;
46391;SDS011;32098;49.448;7.904;2022-12-07T06:48:20;16.37;;;10.47;;
46391;SDS011;32098;49.448;7.904;2022-12-07T06:50:47;17.43;;;10.40;;
46391;SDS011;32098;49.448;7.904;2022-12-07T06:53:19;15.83;;;9.10;;
46391;SDS011;32098;49.448;7.904;2022-12-07T06:55:46;16.43;;;9.70;;
46391;SDS011;32098;49.448;7.904;2022-12-07T06:58:12;14.17;;;9.23;;
46391;SDS011;32098;49.448;7.904;2022-12-07T07:00:39;15.53;;;9.40;;
46391;SDS011;32098;49.448;7.904;2022-12-07T07:03:05;17.17;;;10.13;;
46391;SDS011;32098;49.448;7.904;2022-12-07T07:05:32;13.83;;;9.37;;
46391;SDS011;32098;49.448;7.904;2022-12-07T07:07:58;15.57;;;9.47;;
46391;SDS011;32098;49.448;7.904;2022-12-07T07:10:45;16.13;;;10.20;;
46391;SDS011;32098;49.448;7.904;2022-12-07T07:13:11;14.60;;;9.67;;
46391;SDS011;32098;49.448;7.904;2022-12-07T07:15:38;20.43;;;10.50;;
46391;SDS011;32098;49.448;7.904;2022-12-07T07:18:05;16.57;;;10.30;;
46391;SDS011;32098;49.448;7.904;2022-12-07T07:20:33;15.33;;;10.13;;
46391;SDS011;32098;49.448;7.904;2022-12-07T07:23:00;16.70;;;9.90;;
46391;SDS011;32098;49.448;7.904;2022-12-07T07:25:26;15.57;;;10.00;;
46391;SDS011;32098;49.448;7.904;2022-12-07T07:27:53;17.50;;;10.97;;
46391;SDS011;32098;49.448;7.904;2022-12-07T07:30:20;15.57;;;10.60;;
46391;SDS011;32098;49.448;7.904;2022-12-07T07:32:46;16.60;;;10.77;;
46391;SDS011;32098;49.448;7.904;2022-12-07T07:35:13;16.47;;;10.53;;
46391;SDS011;32098;49.448;7.904;2022-12-07T07:37:40;16.93;;;10.50;;
46391;SDS011;32098;49.448;7.904;2022-12-07T07:40:07;18.50;;;11.67;;
46391;SDS011;32098;49.448;7.904;2022-12-07T07:42:35;18.43;;;11.60;;
46391;SDS011;32098;49.448;7.904;2022-12-07T07:45:02;18.73;;;12.50;;
46391;SDS011;32098;49.448;7.904;2022-12-07T07:47:29;18.87;;;11.67;;
46391;SDS011;32098;49.448;7.904;2022-12-07T07:49:55;20.20;;;11.67;;
46391;SDS011;32098;49.448;7.904;2022-12-07T07:52:23;20.27;;;12.17;;
46391;SDS011;32098;49.448;7.904;2022-12-07T07:54:49;19.33;;;11.80;;
46391;SDS011;32098;49.448;7.904;2022-12-07T07:57:16;16.57;;;10.90;;
46391;SDS011;32098;49.448;7.904;2022-12-07T07:59:43;19.50;;;11.10;;
46391;SDS011;32098;49.448;7.904;2022-12-07T08:02:19;17.23;;;11.47;;
46391;SDS011;32098;49.448;7.904;2022-12-07T08:04:46;17.50;;;10.43;;
46391;SDS011;32098;49.448;7.904;2022-12-07T08:07:13;19.30;;;11.60;;
46391;SDS011;32098;49.448;7.904;2022-12-07T08:09:41;16.97;;;10.93;;
46391;SDS011;32098;49.448;7.904;2022-12-07T08:12:08;20.33;;;11.17;;
46391;SDS011;32098;49.448;7.904;2022-12-07T08:14:34;15.77;;;11.00;;
46391;SDS011;32098;49.448;7.904;2022-12-07T08:17:01;16.90;;;10.47;;
46391;SDS011;32098;49.448;7.904;2022-12-07T08:19:27;20.53;;;10.83;;
46391;SDS011;32098;49.448;7.904;2022-12-07T08:21:54;18.00;;;10.50;;
46391;SDS011;32098;49.448;7.904;2022-12-07T08:24:22;15.73;;;9.77;;
46391;SDS011;32098;49.448;7.904;2022-12-07T08:26:49;16.37;;;10.77;;
46391;SDS011;32098;49.448;7.904;2022-12-07T08:29:16;23.13;;;13.53;;
46391;SDS011;32098;49.448;7.904;2022-12-07T08:31:43;20.50;;;11.93;;
46391;SDS011;32098;49.448;7.904;2022-12-07T08:34:10;19.73;;;11.50;;
46391;SDS011;32098;49.448;7.904;2022-12-07T08:36:37;22.60;;;12.23;;
46391;SDS011;32098;49.448;7.904;2022-12-07T08:39:03;17.70;;;10.60;;
46391;SDS011;32098;49.448;7.904;2022-12-07T08:41:50;15.90;;;10.83;;
46391;SDS011;32098;49.448;7.904;2022-12-07T08:44:17;18.70;;;11.13;;
46391;SDS011;32098;49.448;7.904;2022-12-07T08:46:45;22.03;;;11.97;;
46391;SDS011;32098;49.448;7.904;2022-12-07T08:49:18;18.27;;;10.77;;
46391;SDS011;32098;49.448;7.904;2022-12-07T08:51:48;16.87;;;9.97;;
46391;SDS011;32098;49.448;7.904;2022-12-07T08:54:16;20.07;;;11.10;;
46391;SDS011;32098;49.448;7.904;2022-12-07T08:56:44;17.53;;;10.90;;
46391;SDS011;32098;49.448;7.904;2022-12-07T08:59:17;17.27;;;10.70;;
46391;SDS011;32098;49.448;7.904;2022-12-07T09:01:45;17.07;;;10.90;;
46391;SDS011;32098;49.448;7.904;2022-12-07T09:04:12;15.87;;;10.93;;
46391;SDS011;32098;49.448;7.904;2022-12-07T09:06:39;16.07;;;10.73;;
46391;SDS011;32098;49.448;7.904;2022-12-07T09:09:07;18.60;;;11.00;;
46391;SDS011;32098;49.448;7.904;2022-12-07T09:11:35;17.50;;;10.43;;
46391;SDS011;32098;49.448;7.904;2022-12-07T09:14:02;18.17;;;10.70;;
46391;SDS011;32098;49.448;7.904;2022-12-07T09:16:28;14.87;;;10.20;;
46391;SDS011;32098;49.448;7.904;2022-12-07T09:18:55;16.40;;;10.30;;
46391;SDS011;32098;49.448;7.904;2022-12-07T09:21:21;16.90;;;11.27;;
46391;SDS011;32098;49.448;7.904;2022-12-07T09:23:48;17.80;;;10.43;;
46391;SDS011;32098;49.448;7.904;2022-12-07T09:26:15;18.47;;;11.57;;
46391;SDS011;32098;49.448;7.904;2022-12-07T09:28:41;17.03;;;10.70;;
46391;SDS011;32098;49.448;7.904;2022-12-07T09:31:08;18.27;;;11.70;;
46391;SDS011;32098;49.448;7.904;2022-12-07T09:33:55;17.57;;;11.03;;
46391;SDS011;32098;49.448;7.904;2022-12-07T09:36:26;17.43;;;11.17;;
46391;SDS011;32098;49.448;7.904;2022-12-07T09:38:54;16.63;;;10.67;;
46391;SDS011;32098;49.448;7.904;2022-12-07T09:41:21;17.57;;;10.73;;
46391;SDS011;32098;49.448;7.904;2022-12-07T09:43:48;15.60;;;10.83;;
46391;SDS011;32098;49.448;7.904;2022-12-07T09:46:16;16.23;;;11.03;;
46391;SDS011;32098;49.448;7.904;2022-12-07T09:48:45;18.87;;;11.83;;
46391;SDS011;32098;49.448;7.904;2022-12-07T09:51:17;16.13;;;10.23;;
46391;SDS011;32098;49.448;7.904;2022-12-07T09:53:50;18.53;;;11.13;;
46391;SDS011;32098;49.448;7.904;2022-12-07T09:56:18;20.10;;;12.73;;
46391;SDS011;32098;49.448;7.904;2022-12-07T09:58:46;19.40;;;11.97;;
46391;SDS011;32098;49.448;7.904;2022-12-07T10:01:18;34.30;;;21.13;;
46391;SDS011;32098;49.448;7.904;2022-12-07T10:03:50;29.40;;;18.47;;
46391;SDS011;32098;49.448;7.904;2022-12-07T10:06:19;26.83;;;17.03;;
46391;SDS011;32098;49.448;7.904;2022-12-07T10:08:46;21.00;;;14.60;;
46391;SDS011;32098;49.448;7.904;2022-12-07T10:11:13;17.43;;;10.97;;
46391;SDS011;32098;49.448;7.904;2022-12-07T10:13:51;15.10;;;10.77;;
46391;SDS011;32098;49.448;7.904;2022-12-07T10:19:01;22.30;;;12.57;;
46391;SDS011;32098;49.448;7.904;2022-12-07T10:24:42;17.80;;;9.63;;
46391;SDS011;32098;49.448;7.904;2022-12-07T10:27:19;15.93;;;10.67;;
46391;SDS011;32098;49.448;7.904;2022-12-07T10:29:51;20.07;;;11.80;;
46391;SDS011;32098;49.448;7.904;2022-12-07T10:34:45;13.67;;;8.63;;
46391;SDS011;32098;49.448;7.904;2022-12-07T10:37:19;13.30;;;7.97;;
46391;SDS011;32098;49.448;7.904;2022-12-07T10:39:53;11.27;;;7.60;;
46391;SDS011;32098;49.448;7.904;2022-12-07T10:42:30;11.03;;;7.43;;
46391;SDS011;32098;49.448;7.904;2022-12-07T10:45:16;11.33;;;7.50;;
46391;SDS011;32098;49.448;7.904;2022-12-07T10:47:46;8.57;;;5.87;;
46391;SDS011;32098;49.448;7.904;2022-12-07T10:50:42;9.90;;;5.57;;
46391;SDS011;32098;49.448;7.904;2022-12-07T10:53:32;9.80;;;6.33;;
46391;SDS011;32098;49.448;7.904;2022-12-07T10:56:22;10.90;;;7.50;;
46391;SDS011;32098;49.448;7.904;2022-12-07T10:59:03;11.03;;;6.27;;
46391;SDS011;32098;49.448;7.904;2022-12-07T11:04:18;11.83;;;7.43;;
46391;SDS011;32098;49.448;7.904;2022-12-07T11:09:43;10.30;;;6.67;;
46391;SDS011;32098;49.448;7.904;2022-12-07T11:15:33;11.77;;;8.00;;
46391;SDS011;32098;49.448;7.904;2022-12-07T11:18:13;15.07;;;9.27;;
46391;SDS011;32098;49.448;7.904;2022-12-07T11:20:53;14.60;;;8.70;;
46391;SDS011;32098;49.448;7.904;2022-12-07T11:29:34;7.63;;;5.00;;
46391;SDS011;32098;49.448;7.904;2022-12-07T11:32:26;9.77;;;5.83;;
46391;SDS011;32098;49.448;7.904;2022-12-07T11:35:01;8.30;;;5.07;;
46391;SDS011;32098;49.448;7.904;2022-12-07T11:37:35;9.23;;;5.43;;
46391;SDS011;32098;49.448;7.904;2022-12-07T11:45:47;7.17;;;3.90;;
46391;SDS011;32098;49.448;7.904;2022-12-07T11:48:33;6.87;;;4.13;;
46391;SDS011;32098;49.448;7.904;2022-12-07T11:51:07;9.90;;;4.53;;
46391;SDS011;32098;49.448;7.904;2022-12-07T11:53:44;7.80;;;4.60;;
46391;SDS011;32098;49.448;7.904;2022-12-07T11:56:25;7.23;;;4.43;;
46391;SDS011;32098;49.448;7.904;2022-12-07T11:58:55;7.03;;;4.63;;
46391;SDS011;32098;49.448;7.904;2022-12-07T12:06:41;12.97;;;7.03;;
46391;SDS011;32098;49.448;7.904;2022-12-07T12:09:13;6.50;;;4.00;;
46391;SDS011;32098;49.448;7.904;2022-12-07T12:12:08;5.70;;;3.63;;
46391;SDS011;32098;49.448;7.904;2022-12-07T12:15:23;5.87;;;3.90;;
46391;SDS011;32098;49.448;7.904;2022-12-07T12:18:18;4.07;;;3.40;;
46391;SDS011;32098;49.448;7.904;2022-12-07T12:21:10;5.77;;;3.37;;
46391;SDS011;32098;49.448;7.904;2022-12-07T12:24:28;5.97;;;3.40;;
46391;SDS011;32098;49.448;7.904;2022-12-07T12:26:48;5.50;;;3.47;;
46391;SDS011;32098;49.448;7.904;2022-12-07T12:29:27;4.37;;;3.30;;
46391;SDS011;32098;49.448;7.904;2022-12-07T12:32:12;7.77;;;3.90;;
46391;SDS011;32098;49.448;7.904;2022-12-07T12:37:46;5.47;;;2.83;;
46391;SDS011;32098;49.448;7.904;2022-12-07T12:42:43;9.53;;;5.67;;
46391;SDS011;32098;49.448;7.904;2022-12-07T12:45:17;6.83;;;4.97;;
46391;SDS011;32098;49.448;7.904;2022-12-07T12:47:54;7.30;;;4.50;;
46391;SDS011;32098;49.448;7.904;2022-12-07T12:50:29;5.00;;;3.63;;
46391;SDS011;32098;49.448;7.904;2022-12-07T12:58:49;6.87;;;3.47;;
46391;SDS011;32098;49.448;7.904;2022-12-07T13:04:02;5.07;;;2.80;;
46391;SDS011;32098;49.448;7.904;2022-12-07T13:06:40;4.53;;;3.10;;
46391;SDS011;32098;49.448;7.904;2022-12-07T13:09:17;7.77;;;5.10;;
46391;SDS011;32098;49.448;7.904;2022-12-07T13:11:54;7.47;;;3.60;;
46391;SDS011;32098;49.448;7.904;2022-12-07T13:19:59;5.53;;;3.03;;
46391;SDS011;32098;49.448;7.904;2022-12-07T13:22:34;3.77;;;2.70;;
46391;SDS011;32098;49.448;7.904;2022-12-07T13:25:18;5.17;;;3.00;;
46391;SDS011;32098;49.448;7.904;2022-12-07T13:30:43;5.03;;;2.90;;
46391;SDS011;32098;49.448;7.904;2022-12-07T13:33:13;3.73;;;3.13;;
46391;SDS011;32098;49.448;7.904;2022-12-07T13:35:43;5.30;;;3.40;;
46391;SDS011;32098;49.448;7.904;2022-12-07T13:38:23;6.67;;;3.43;;
46391;SDS011;32098;49.448;7.904;2022-12-07T13:41:16;9.93;;;5.17;;
46391;SDS011;32098;49.448;7.904;2022-12-07T13:43:48;5.03;;;3.60;;
46391;SDS011;32098;49.448;7.904;2022-12-07T13:46:19;6.07;;;3.83;;
46391;SDS011;32098;49.448;7.904;2022-12-07T13:48:52;7.00;;;4.03;;
46391;SDS011;32098;49.448;7.904;2022-12-07T13:53:49;8.13;;;3.93;;
46391;SDS011;32098;49.448;7.904;2022-12-07T13:56:35;5.33;;;3.70;;
46391;SDS011;32098;49.448;7.904;2022-12-07T13:59:02;5.17;;;3.57;;
46391;SDS011;32098;49.448;7.904;2022-12-07T14:01:31;5.80;;;3.47;;
46391;SDS011;32098;49.448;7.904;2022-12-07T14:06:50;6.17;;;4.10;;
46391;SDS011;32098;49.448;7.904;2022-12-07T14:11:49;6.77;;;4.70;;
46391;SDS011;32098;49.448;7.904;2022-12-07T14:14:18;8.20;;;5.00;;
46391;SDS011;32098;49.448;7.904;2022-12-07T14:16:57;6.23;;;4.60;;
46391;SDS011;32098;49.448;7.904;2022-12-07T14:27:51;7.13;;;4.27;;
46391;SDS011;32098;49.448;7.904;2022-12-07T14:30:19;6.20;;;4.40;;
46391;SDS011;32098;49.448;7.904;2022-12-07T14:32:46;6.90;;;4.20;;
46391;SDS011;32098;49.448;7.904;2022-12-07T14:35:17;6.17;;;3.83;;
46391;SDS011;32098;49.448;7.904;2022-12-07T14:37:45;6.13;;;3.83;;
46391;SDS011;32098;49.448;7.904;2022-12-07T14:40:16;5.63;;;4.13;;
46391;SDS011;32098;49.448;7.904;2022-12-07T14:42:47;5.90;;;4.07;;
46391;SDS011;32098;49.448;7.904;2022-12-07T14:45:18;7.27;;;4.37;;
46391;SDS011;32098;49.448;7.904;2022-12-07T14:47:46;4.80;;;3.53;;
46391;SDS011;32098;49.448;7.904;2022-12-07T14:50:35;6.60;;;4.10;;
46391;SDS011;32098;49.448;7.904;2022-12-07T14:53:07;5.07;;;3.57;;
46391;SDS011;32098;49.448;7.904;2022-12-07T14:55:55;5.90;;;4.00;;
46391;SDS011;32098;49.448;7.904;2022-12-07T14:58:21;5.77;;;3.70;;
46391;SDS011;32098;49.448;7.904;2022-12-07T15:00:48;6.50;;;3.90;;
46391;SDS011;32098;49.448;7.904;2022-12-07T15:03:15;8.70;;;4.07;;
46391;SDS011;32098;49.448;7.904;2022-12-07T15:05:41;6.03;;;4.20;;
46391;SDS011;32098;49.448;7.904;2022-12-07T15:08:08;8.33;;;4.57;;
46391;SDS011;32098;49.448;7.904;2022-12-07T15:10:37;9.17;;;5.73;;
46391;SDS011;32098;49.448;7.904;2022-12-07T15:13:06;9.87;;;5.50;;
46391;SDS011;32098;49.448;7.904;2022-12-07T15:15:52;10.07;;;5.83;;
46391;SDS011;32098;49.448;7.904;2022-12-07T15:18:21;10.80;;;5.80;;
46391;SDS011;32098;49.448;7.904;2022-12-07T15:20:49;10.60;;;6.30;;
46391;SDS011;32098;49.448;7.904;2022-12-07T15:23:15;8.37;;;5.40;;
46391;SDS011;32098;49.448;7.904;2022-12-07T15:25:42;6.83;;;4.57;;
46391;SDS011;32098;49.448;7.904;2022-12-07T15:28:10;8.27;;;4.90;;
46391;SDS011;32098;49.448;7.904;2022-12-07T15:30:37;9.00;;;5.77;;
46391;SDS011;32098;49.448;7.904;2022-12-07T15:33:05;12.10;;;7.07;;
46391;SDS011;32098;49.448;7.904;2022-12-07T15:35:31;13.30;;;7.50;;
46391;SDS011;32098;49.448;7.904;2022-12-07T15:37:57;19.77;;;10.33;;
46391;SDS011;32098;49.448;7.904;2022-12-07T15:40:24;14.97;;;8.30;;
46391;SDS011;32098;49.448;7.904;2022-12-07T15:42:50;19.93;;;10.87;;
46391;SDS011;32098;49.448;7.904;2022-12-07T15:45:17;22.97;;;12.10;;
46391;SDS011;32098;49.448;7.904;2022-12-07T15:47:43;17.93;;;9.90;;
46391;SDS011;32098;49.448;7.904;2022-12-07T15:50:33;15.40;;;9.80;;
46391;SDS011;32098;49.448;7.904;2022-12-07T15:52:59;10.57;;;6.43;;
46391;SDS011;32098;49.448;7.904;2022-12-07T15:55:26;8.50;;;5.67;;
46391;SDS011;32098;49.448;7.904;2022-12-07T15:57:52;8.33;;;5.33;;
46391;SDS011;32098;49.448;7.904;2022-12-07T16:00:19;8.00;;;5.10;;
46391;SDS011;32098;49.448;7.904;2022-12-07T16:02:45;9.37;;;5.83;;
46391;SDS011;32098;49.448;7.904;2022-12-07T16:05:12;10.30;;;7.00;;
46391;SDS011;32098;49.448;7.904;2022-12-07T16:07:39;9.23;;;6.13;;
46391;SDS011;32098;49.448;7.904;2022-12-07T16:10:05;12.37;;;6.57;;
46391;SDS011;32098;49.448;7.904;2022-12-07T16:12:32;9.50;;;6.47;;
46391;SDS011;32098;49.448;7.904;2022-12-07T16:14:59;11.13;;;6.70;;
46391;SDS011;32098;49.448;7.904;2022-12-07T16:17:26;10.27;;;6.73;;
46391;SDS011;32098;49.448;7.904;2022-12-07T16:19:53;8.07;;;5.87;;
46391;SDS011;32098;49.448;7.904;2022-12-07T16:22:19;13.73;;;9.23;;
46391;SDS011;32098;49.448;7.904;2022-12-07T16:24:46;16.23;;;11.43;;
46391;SDS011;32098;49.448;7.904;2022-12-07T16:27:12;10.47;;;7.20;;
46391;SDS011;32098;49.448;7.904;2022-12-07T16:29:39;9.87;;;7.47;;
46391;SDS011;32098;49.448;7.904;2022-12-07T16:32:05;8.73;;;6.50;;
46391;SDS011;32098;49.448;7.904;2022-12-07T16:34:32;9.43;;;6.00;;
46391;SDS011;32098;49.448;7.904;2022-12-07T16:36:58;11.00;;;7.53;;
46391;SDS011;32098;49.448;7.904;2022-12-07T16:39:31;11.30;;;7.37;;
46391;SDS011;32098;49.448;7.904;2022-12-07T16:41:58;10.47;;;7.27;;